Terminal Aerodrome Forecast
Issued by NWS

Home | Current Version | Previous Version | Text Only | Print | Product List | Glossary On
Versions: 1 2 3 4 5 6 7 8 9 10 11 12 13 14 15 16
000
FTUS45 KABQ 302340
TAFTCC
TAF
KTCC 302340Z 3100/3124 08008KT P6SM VCSH SCT040 OVC100
      TEMPO 3100/3104 5SM SHRA BR SCT015 OVC040
     FM310400 04008KT P6SM VCSH SCT020 BKN040
      TEMPO 3104/3108 -SHRA OVC035
     FM310800 VRB03KT P6SM VCFG BKN025
      TEMPO 3110/3114 2SM BR OVC015
     FM311800 26006KT P6SM VCSH BKN035=

USA.gov is the U.S. government's official web portal to all federal, state and local government web resources and services.